Alexandria, Virginia
Current Conditions -  °F | °C
As of 2:52 PM on Thursday 23 Oct 2014 (Local Time) from KDCA Reporting Station
Broken Clouds Broken Clouds  
Wind Chill: 67°   Ceiling: 4400
Heat Index: 67°   Visibility: 10mi
Dew Point: 45°   Wind: 24mph
Humidity: 45%   Direction: 320°NW
Pressure: 29.87"   Gusts: 36mph
Location:  38.8°N, 77.04°W
Report Text: KDCA 231852Z 32021G31KT 10SM BKN044 19/07 A2987 RMK AO2 PK WND 34031/1847 SLP112 T01940072
Loading
Personal Weather Stations






























Interactive Weather Map
Tropical Storm Tracking
New forecast layout! Learn more

10-Day Weather Forecast

Advertisements
Track Severe Weather on mobile